sensor_id;sensor_type;location;lat;lon;timestamp;P1;durP1;ratioP1;P2;durP2;ratioP2
65879;SDS011;52661;51.364;6.054;2023-06-22T00:00:48;9.65;;;4.13;;
65879;SDS011;52661;51.364;6.054;2023-06-22T00:03:18;6.43;;;3.63;;
65879;SDS011;52661;51.364;6.054;2023-06-22T00:05:44;8.90;;;3.75;;
65879;SDS011;52661;51.364;6.054;2023-06-22T00:08:11;8.27;;;3.92;;
65879;SDS011;52661;51.364;6.054;2023-06-22T00:10:36;7.45;;;3.63;;
65879;SDS011;52661;51.364;6.054;2023-06-22T00:13:02;10.52;;;4.30;;
65879;SDS011;52661;51.364;6.054;2023-06-22T00:15:27;10.88;;;4.90;;
65879;SDS011;52661;51.364;6.054;2023-06-22T00:17:53;6.53;;;4.03;;
65879;SDS011;52661;51.364;6.054;2023-06-22T00:20:18;7.30;;;3.60;;
65879;SDS011;52661;51.364;6.054;2023-06-22T00:22:44;9.57;;;4.80;;
65879;SDS011;52661;51.364;6.054;2023-06-22T00:25:09;9.07;;;4.47;;
65879;SDS011;52661;51.364;6.054;2023-06-22T00:27:35;8.75;;;4.35;;
65879;SDS011;52661;51.364;6.054;2023-06-22T00:30:01;10.45;;;4.95;;
65879;SDS011;52661;51.364;6.054;2023-06-22T00:32:27;9.20;;;4.88;;
65879;SDS011;52661;51.364;6.054;2023-06-22T00:34:52;9.73;;;4.43;;
65879;SDS011;52661;51.364;6.054;2023-06-22T00:37:17;9.47;;;5.20;;
65879;SDS011;52661;51.364;6.054;2023-06-22T00:39:43;10.95;;;5.70;;
65879;SDS011;52661;51.364;6.054;2023-06-22T00:42:08;10.52;;;5.97;;
65879;SDS011;52661;51.364;6.054;2023-06-22T00:44:34;8.80;;;5.05;;
65879;SDS011;52661;51.364;6.054;2023-06-22T00:47:00;9.23;;;5.63;;
65879;SDS011;52661;51.364;6.054;2023-06-22T00:49:25;10.70;;;5.28;;
65879;SDS011;52661;51.364;6.054;2023-06-22T00:51:51;10.98;;;5.93;;
65879;SDS011;52661;51.364;6.054;2023-06-22T00:54:17;11.93;;;5.50;;
65879;SDS011;52661;51.364;6.054;2023-06-22T00:56:49;11.70;;;7.38;;
65879;SDS011;52661;51.364;6.054;2023-06-22T00:59:17;11.73;;;4.88;;
65879;SDS011;52661;51.364;6.054;2023-06-22T01:01:43;11.80;;;6.55;;
65879;SDS011;52661;51.364;6.054;2023-06-22T01:04:09;11.82;;;5.82;;
65879;SDS011;52661;51.364;6.054;2023-06-22T01:06:38;12.07;;;6.05;;
65879;SDS011;52661;51.364;6.054;2023-06-22T01:09:22;12.02;;;5.70;;
65879;SDS011;52661;51.364;6.054;2023-06-22T01:11:54;13.10;;;6.63;;
65879;SDS011;52661;51.364;6.054;2023-06-22T01:14:28;14.30;;;6.18;;
65879;SDS011;52661;51.364;6.054;2023-06-22T01:16:56;10.30;;;5.60;;
65879;SDS011;52661;51.364;6.054;2023-06-22T01:22:14;12.70;;;5.95;;
65879;SDS011;52661;51.364;6.054;2023-06-22T01:24:45;12.10;;;6.20;;
65879;SDS011;52661;51.364;6.054;2023-06-22T01:27:38;10.07;;;5.72;;
65879;SDS011;52661;51.364;6.054;2023-06-22T01:30:12;9.50;;;5.35;;
65879;SDS011;52661;51.364;6.054;2023-06-22T01:32:40;11.77;;;6.88;;
65879;SDS011;52661;51.364;6.054;2023-06-22T01:35:07;11.60;;;5.68;;
65879;SDS011;52661;51.364;6.054;2023-06-22T01:37:33;14.77;;;6.93;;
65879;SDS011;52661;51.364;6.054;2023-06-22T01:40:01;11.45;;;6.00;;
65879;SDS011;52661;51.364;6.054;2023-06-22T01:42:28;12.15;;;6.50;;
65879;SDS011;52661;51.364;6.054;2023-06-22T01:44:54;11.43;;;6.45;;
65879;SDS011;52661;51.364;6.054;2023-06-22T01:47:21;12.35;;;6.72;;
65879;SDS011;52661;51.364;6.054;2023-06-22T01:49:47;13.43;;;6.28;;
65879;SDS011;52661;51.364;6.054;2023-06-22T01:52:14;11.75;;;6.82;;
65879;SDS011;52661;51.364;6.054;2023-06-22T01:54:40;12.40;;;7.43;;
65879;SDS011;52661;51.364;6.054;2023-06-22T01:57:05;14.80;;;7.15;;
65879;SDS011;52661;51.364;6.054;2023-06-22T02:02:09;11.90;;;6.45;;
65879;SDS011;52661;51.364;6.054;2023-06-22T02:04:46;12.57;;;7.05;;
65879;SDS011;52661;51.364;6.054;2023-06-22T02:07:17;15.82;;;7.47;;
65879;SDS011;52661;51.364;6.054;2023-06-22T02:09:44;12.32;;;6.88;;
65879;SDS011;52661;51.364;6.054;2023-06-22T02:12:12;13.75;;;7.30;;
65879;SDS011;52661;51.364;6.054;2023-06-22T02:14:41;13.10;;;7.60;;
65879;SDS011;52661;51.364;6.054;2023-06-22T02:17:08;11.63;;;6.95;;
65879;SDS011;52661;51.364;6.054;2023-06-22T02:19:37;11.98;;;7.38;;
65879;SDS011;52661;51.364;6.054;2023-06-22T02:22:04;11.43;;;6.75;;
65879;SDS011;52661;51.364;6.054;2023-06-22T02:24:29;11.73;;;6.75;;
65879;SDS011;52661;51.364;6.054;2023-06-22T02:26:57;15.35;;;8.13;;
65879;SDS011;52661;51.364;6.054;2023-06-22T02:29:23;13.02;;;7.25;;
65879;SDS011;52661;51.364;6.054;2023-06-22T02:31:49;13.30;;;7.32;;
65879;SDS011;52661;51.364;6.054;2023-06-22T02:34:14;11.93;;;7.50;;
65879;SDS011;52661;51.364;6.054;2023-06-22T02:36:43;12.32;;;7.25;;
65879;SDS011;52661;51.364;6.054;2023-06-22T02:39:25;12.35;;;7.72;;
65879;SDS011;52661;51.364;6.054;2023-06-22T02:41:51;12.85;;;6.55;;
65879;SDS011;52661;51.364;6.054;2023-06-22T02:44:17;12.80;;;6.50;;
65879;SDS011;52661;51.364;6.054;2023-06-22T02:46:43;13.40;;;8.73;;
65879;SDS011;52661;51.364;6.054;2023-06-22T02:49:10;12.98;;;7.35;;
65879;SDS011;52661;51.364;6.054;2023-06-22T02:51:37;13.25;;;7.53;;
65879;SDS011;52661;51.364;6.054;2023-06-22T02:54:04;13.32;;;7.15;;
65879;SDS011;52661;51.364;6.054;2023-06-22T02:56:30;15.15;;;6.95;;
65879;SDS011;52661;51.364;6.054;2023-06-22T02:58:56;14.77;;;6.75;;
65879;SDS011;52661;51.364;6.054;2023-06-22T03:01:25;11.55;;;6.65;;
65879;SDS011;52661;51.364;6.054;2023-06-22T03:03:53;13.80;;;6.53;;
65879;SDS011;52661;51.364;6.054;2023-06-22T03:06:19;12.40;;;7.07;;
65879;SDS011;52661;51.364;6.054;2023-06-22T03:08:48;13.23;;;7.43;;
65879;SDS011;52661;51.364;6.054;2023-06-22T03:11:14;14.35;;;7.70;;
65879;SDS011;52661;51.364;6.054;2023-06-22T03:13:40;12.48;;;7.00;;
65879;SDS011;52661;51.364;6.054;2023-06-22T03:16:06;13.27;;;6.45;;
65879;SDS011;52661;51.364;6.054;2023-06-22T03:18:31;11.23;;;6.68;;
65879;SDS011;52661;51.364;6.054;2023-06-22T03:20:56;14.03;;;6.87;;
65879;SDS011;52661;51.364;6.054;2023-06-22T03:23:22;13.18;;;7.18;;
65879;SDS011;52661;51.364;6.054;2023-06-22T03:25:47;12.10;;;6.70;;
65879;SDS011;52661;51.364;6.054;2023-06-22T03:28:12;14.30;;;7.50;;
65879;SDS011;52661;51.364;6.054;2023-06-22T03:30:38;12.43;;;7.13;;
65879;SDS011;52661;51.364;6.054;2023-06-22T03:33:03;14.68;;;6.80;;
65879;SDS011;52661;51.364;6.054;2023-06-22T03:35:29;12.40;;;6.80;;
65879;SDS011;52661;51.364;6.054;2023-06-22T03:37:54;13.97;;;7.40;;
65879;SDS011;52661;51.364;6.054;2023-06-22T03:40:19;14.57;;;8.20;;
65879;SDS011;52661;51.364;6.054;2023-06-22T03:42:45;14.38;;;8.25;;
65879;SDS011;52661;51.364;6.054;2023-06-22T03:45:11;17.75;;;8.55;;
65879;SDS011;52661;51.364;6.054;2023-06-22T03:47:36;12.98;;;8.20;;
65879;SDS011;52661;51.364;6.054;2023-06-22T03:50:01;14.88;;;8.23;;
65879;SDS011;52661;51.364;6.054;2023-06-22T03:52:28;14.93;;;7.03;;
65879;SDS011;52661;51.364;6.054;2023-06-22T03:54:54;15.30;;;8.07;;
65879;SDS011;52661;51.364;6.054;2023-06-22T03:57:20;13.60;;;7.63;;
65879;SDS011;52661;51.364;6.054;2023-06-22T03:59:45;15.00;;;7.57;;
65879;SDS011;52661;51.364;6.054;2023-06-22T04:02:10;14.77;;;8.63;;
65879;SDS011;52661;51.364;6.054;2023-06-22T04:04:36;11.35;;;6.60;;
65879;SDS011;52661;51.364;6.054;2023-06-22T04:09:29;17.10;;;8.27;;
65879;SDS011;52661;51.364;6.054;2023-06-22T04:11:54;13.47;;;7.60;;
65879;SDS011;52661;51.364;6.054;2023-06-22T04:14:19;13.17;;;8.53;;
65879;SDS011;52661;51.364;6.054;2023-06-22T04:16:44;13.90;;;7.87;;
65879;SDS011;52661;51.364;6.054;2023-06-22T04:19:10;13.97;;;7.23;;
65879;SDS011;52661;51.364;6.054;2023-06-22T04:21:41;16.50;;;8.38;;
65879;SDS011;52661;51.364;6.054;2023-06-22T04:24:06;16.35;;;7.65;;
65879;SDS011;52661;51.364;6.054;2023-06-22T04:26:31;16.55;;;8.05;;
65879;SDS011;52661;51.364;6.054;2023-06-22T04:29:02;15.77;;;7.60;;
65879;SDS011;52661;51.364;6.054;2023-06-22T04:31:30;16.40;;;9.15;;
65879;SDS011;52661;51.364;6.054;2023-06-22T04:33:57;16.67;;;8.52;;
65879;SDS011;52661;51.364;6.054;2023-06-22T04:36:30;18.17;;;8.50;;
65879;SDS011;52661;51.364;6.054;2023-06-22T04:39:02;15.02;;;8.32;;
65879;SDS011;52661;51.364;6.054;2023-06-22T04:41:29;16.15;;;8.35;;
65879;SDS011;52661;51.364;6.054;2023-06-22T04:43:54;16.13;;;8.50;;
65879;SDS011;52661;51.364;6.054;2023-06-22T04:46:24;16.45;;;8.23;;
65879;SDS011;52661;51.364;6.054;2023-06-22T04:48:50;15.07;;;8.50;;
65879;SDS011;52661;51.364;6.054;2023-06-22T04:51:15;14.70;;;8.10;;
65879;SDS011;52661;51.364;6.054;2023-06-22T04:53:40;16.48;;;8.68;;
65879;SDS011;52661;51.364;6.054;2023-06-22T04:56:06;22.95;;;10.02;;
65879;SDS011;52661;51.364;6.054;2023-06-22T04:58:31;16.83;;;8.88;;
65879;SDS011;52661;51.364;6.054;2023-06-22T05:00:57;18.92;;;9.65;;
65879;SDS011;52661;51.364;6.054;2023-06-22T05:03:24;15.70;;;7.97;;
65879;SDS011;52661;51.364;6.054;2023-06-22T05:05:51;14.73;;;8.10;;
65879;SDS011;52661;51.364;6.054;2023-06-22T05:08:17;13.55;;;8.32;;
65879;SDS011;52661;51.364;6.054;2023-06-22T05:10:42;15.98;;;8.50;;
65879;SDS011;52661;51.364;6.054;2023-06-22T05:13:08;16.60;;;9.30;;
65879;SDS011;52661;51.364;6.054;2023-06-22T05:15:33;17.85;;;9.45;;
65879;SDS011;52661;51.364;6.054;2023-06-22T05:18:04;15.02;;;7.90;;
65879;SDS011;52661;51.364;6.054;2023-06-22T05:20:30;17.08;;;9.13;;
65879;SDS011;52661;51.364;6.054;2023-06-22T05:22:55;16.90;;;9.07;;
65879;SDS011;52661;51.364;6.054;2023-06-22T05:25:21;17.63;;;8.02;;
65879;SDS011;52661;51.364;6.054;2023-06-22T05:27:46;15.87;;;9.43;;
65879;SDS011;52661;51.364;6.054;2023-06-22T05:30:12;14.55;;;8.45;;
65879;SDS011;52661;51.364;6.054;2023-06-22T05:32:37;16.63;;;8.23;;
65879;SDS011;52661;51.364;6.054;2023-06-22T05:35:03;16.85;;;8.15;;
65879;SDS011;52661;51.364;6.054;2023-06-22T05:37:29;15.35;;;8.40;;
65879;SDS011;52661;51.364;6.054;2023-06-22T05:39:54;15.00;;;8.27;;
65879;SDS011;52661;51.364;6.054;2023-06-22T05:42:20;17.33;;;8.85;;
65879;SDS011;52661;51.364;6.054;2023-06-22T05:44:46;13.95;;;8.00;;
65879;SDS011;52661;51.364;6.054;2023-06-22T05:47:12;17.50;;;9.10;;
65879;SDS011;52661;51.364;6.054;2023-06-22T05:49:38;15.43;;;9.10;;
65879;SDS011;52661;51.364;6.054;2023-06-22T05:52:03;14.23;;;7.80;;
65879;SDS011;52661;51.364;6.054;2023-06-22T05:54:29;17.00;;;8.60;;
65879;SDS011;52661;51.364;6.054;2023-06-22T05:56:55;14.68;;;7.72;;
65879;SDS011;52661;51.364;6.054;2023-06-22T05:59:20;14.52;;;8.10;;
65879;SDS011;52661;51.364;6.054;2023-06-22T06:01:45;16.70;;;9.13;;
65879;SDS011;52661;51.364;6.054;2023-06-22T06:04:14;19.17;;;9.13;;
65879;SDS011;52661;51.364;6.054;2023-06-22T06:06:40;16.23;;;9.55;;
65879;SDS011;52661;51.364;6.054;2023-06-22T06:09:06;14.70;;;8.20;;
65879;SDS011;52661;51.364;6.054;2023-06-22T06:11:32;13.80;;;8.48;;
65879;SDS011;52661;51.364;6.054;2023-06-22T06:13:58;17.17;;;9.27;;
65879;SDS011;52661;51.364;6.054;2023-06-22T06:16:23;16.00;;;8.60;;
65879;SDS011;52661;51.364;6.054;2023-06-22T06:18:48;14.88;;;8.80;;
65879;SDS011;52661;51.364;6.054;2023-06-22T06:21:15;14.50;;;8.35;;
65879;SDS011;52661;51.364;6.054;2023-06-22T06:23:40;17.70;;;8.95;;
65879;SDS011;52661;51.364;6.054;2023-06-22T06:26:07;15.88;;;9.07;;
65879;SDS011;52661;51.364;6.054;2023-06-22T06:28:32;17.23;;;9.05;;
65879;SDS011;52661;51.364;6.054;2023-06-22T06:30:58;18.08;;;8.98;;
65879;SDS011;52661;51.364;6.054;2023-06-22T06:33:24;16.52;;;8.57;;
65879;SDS011;52661;51.364;6.054;2023-06-22T06:35:49;16.92;;;9.73;;
65879;SDS011;52661;51.364;6.054;2023-06-22T06:38:15;16.00;;;9.50;;
65879;SDS011;52661;51.364;6.054;2023-06-22T06:40:40;16.65;;;8.80;;
65879;SDS011;52661;51.364;6.054;2023-06-22T06:43:06;17.02;;;9.05;;
65879;SDS011;52661;51.364;6.054;2023-06-22T06:45:31;17.67;;;10.30;;
65879;SDS011;52661;51.364;6.054;2023-06-22T06:47:59;16.75;;;9.40;;
65879;SDS011;52661;51.364;6.054;2023-06-22T06:50:24;19.55;;;9.98;;
65879;SDS011;52661;51.364;6.054;2023-06-22T06:52:50;16.63;;;8.35;;
65879;SDS011;52661;51.364;6.054;2023-06-22T06:55:15;19.08;;;9.20;;
65879;SDS011;52661;51.364;6.054;2023-06-22T06:57:41;16.13;;;9.23;;
65879;SDS011;52661;51.364;6.054;2023-06-22T07:00:08;17.10;;;9.60;;
65879;SDS011;52661;51.364;6.054;2023-06-22T07:02:37;18.77;;;9.40;;
65879;SDS011;52661;51.364;6.054;2023-06-22T07:05:05;16.70;;;10.55;;
65879;SDS011;52661;51.364;6.054;2023-06-22T07:07:31;17.85;;;9.68;;
65879;SDS011;52661;51.364;6.054;2023-06-22T07:09:56;15.75;;;9.10;;
65879;SDS011;52661;51.364;6.054;2023-06-22T07:12:22;16.52;;;10.35;;
65879;SDS011;52661;51.364;6.054;2023-06-22T07:14:47;15.93;;;9.05;;
65879;SDS011;52661;51.364;6.054;2023-06-22T07:17:13;16.55;;;9.35;;
65879;SDS011;52661;51.364;6.054;2023-06-22T07:19:38;16.98;;;9.65;;
65879;SDS011;52661;51.364;6.054;2023-06-22T07:22:04;20.20;;;9.93;;
65879;SDS011;52661;51.364;6.054;2023-06-22T07:24:29;18.38;;;9.50;;
65879;SDS011;52661;51.364;6.054;2023-06-22T07:26:55;22.02;;;10.15;;
65879;SDS011;52661;51.364;6.054;2023-06-22T07:31:48;15.57;;;7.70;;
65879;SDS011;52661;51.364;6.054;2023-06-22T07:34:16;18.30;;;10.63;;
65879;SDS011;52661;51.364;6.054;2023-06-22T07:36:42;19.73;;;10.65;;
65879;SDS011;52661;51.364;6.054;2023-06-22T07:39:08;14.32;;;8.60;;
65879;SDS011;52661;51.364;6.054;2023-06-22T07:41:33;14.75;;;7.20;;
65879;SDS011;52661;51.364;6.054;2023-06-22T07:43:58;19.40;;;9.37;;
65879;SDS011;52661;51.364;6.054;2023-06-22T07:46:24;16.83;;;10.15;;
65879;SDS011;52661;51.364;6.054;2023-06-22T07:48:49;15.27;;;8.75;;
65879;SDS011;52661;51.364;6.054;2023-06-22T07:51:15;18.75;;;10.00;;
65879;SDS011;52661;51.364;6.054;2023-06-22T07:53:43;16.63;;;9.73;;
65879;SDS011;52661;51.364;6.054;2023-06-22T07:56:12;16.23;;;9.95;;
65879;SDS011;52661;51.364;6.054;2023-06-22T07:58:38;17.77;;;9.10;;
65879;SDS011;52661;51.364;6.054;2023-06-22T08:01:04;16.38;;;9.32;;
65879;SDS011;52661;51.364;6.054;2023-06-22T08:03:29;15.93;;;9.15;;
65879;SDS011;52661;51.364;6.054;2023-06-22T08:05:55;13.77;;;7.55;;
65879;SDS011;52661;51.364;6.054;2023-06-22T08:08:20;17.88;;;8.80;;
65879;SDS011;52661;51.364;6.054;2023-06-22T08:10:46;18.48;;;9.43;;
65879;SDS011;52661;51.364;6.054;2023-06-22T08:13:11;14.17;;;8.00;;
65879;SDS011;52661;51.364;6.054;2023-06-22T08:15:37;15.68;;;7.88;;
65879;SDS011;52661;51.364;6.054;2023-06-22T08:18:02;12.95;;;8.25;;
65879;SDS011;52661;51.364;6.054;2023-06-22T08:20:27;16.00;;;8.57;;
65879;SDS011;52661;51.364;6.054;2023-06-22T08:22:53;14.60;;;6.88;;
65879;SDS011;52661;51.364;6.054;2023-06-22T08:25:20;12.85;;;7.70;;
65879;SDS011;52661;51.364;6.054;2023-06-22T08:27:46;15.35;;;7.53;;
65879;SDS011;52661;51.364;6.054;2023-06-22T08:30:15;15.68;;;8.25;;
65879;SDS011;52661;51.364;6.054;2023-06-22T08:32:42;17.00;;;8.02;;
65879;SDS011;52661;51.364;6.054;2023-06-22T08:35:07;17.00;;;8.83;;
65879;SDS011;52661;51.364;6.054;2023-06-22T08:37:34;15.75;;;8.85;;
65879;SDS011;52661;51.364;6.054;2023-06-22T08:40:00;14.63;;;7.40;;
65879;SDS011;52661;51.364;6.054;2023-06-22T08:42:29;16.17;;;8.05;;
65879;SDS011;52661;51.364;6.054;2023-06-22T08:44:54;12.23;;;6.95;;
65879;SDS011;52661;51.364;6.054;2023-06-22T08:47:20;12.93;;;7.73;;
65879;SDS011;52661;51.364;6.054;2023-06-22T08:49:46;15.00;;;7.70;;
65879;SDS011;52661;51.364;6.054;2023-06-22T08:52:12;16.77;;;7.82;;
65879;SDS011;52661;51.364;6.054;2023-06-22T08:54:38;16.27;;;8.35;;
65879;SDS011;52661;51.364;6.054;2023-06-22T08:57:03;14.13;;;8.20;;
65879;SDS011;52661;51.364;6.054;2023-06-22T08:59:29;14.07;;;8.70;;
65879;SDS011;52661;51.364;6.054;2023-06-22T09:01:54;16.08;;;8.95;;
65879;SDS011;52661;51.364;6.054;2023-06-22T09:04:19;14.93;;;9.63;;
65879;SDS011;52661;51.364;6.054;2023-06-22T09:06:47;15.63;;;8.75;;
65879;SDS011;52661;51.364;6.054;2023-06-22T09:09:13;18.65;;;9.50;;
65879;SDS011;52661;51.364;6.054;2023-06-22T09:11:39;16.55;;;8.68;;
65879;SDS011;52661;51.364;6.054;2023-06-22T09:14:04;17.42;;;8.07;;
65879;SDS011;52661;51.364;6.054;2023-06-22T09:16:30;14.60;;;8.93;;
65879;SDS011;52661;51.364;6.054;2023-06-22T09:18:55;18.17;;;9.07;;
65879;SDS011;52661;51.364;6.054;2023-06-22T09:21:20;14.35;;;8.02;;
65879;SDS011;52661;51.364;6.054;2023-06-22T09:23:46;16.08;;;8.80;;
65879;SDS011;52661;51.364;6.054;2023-06-22T09:26:15;16.40;;;8.40;;
65879;SDS011;52661;51.364;6.054;2023-06-22T09:28:40;17.80;;;8.60;;
65879;SDS011;52661;51.364;6.054;2023-06-22T09:31:06;20.33;;;9.87;;
65879;SDS011;52661;51.364;6.054;2023-06-22T09:33:32;17.30;;;9.35;;
65879;SDS011;52661;51.364;6.054;2023-06-22T09:35:57;20.75;;;9.32;;
65879;SDS011;52661;51.364;6.054;2023-06-22T09:38:22;16.75;;;8.60;;
65879;SDS011;52661;51.364;6.054;2023-06-22T09:40:48;16.77;;;9.10;;
65879;SDS011;52661;51.364;6.054;2023-06-22T09:43:13;16.67;;;9.13;;
65879;SDS011;52661;51.364;6.054;2023-06-22T09:45:38;16.98;;;9.60;;
65879;SDS011;52661;51.364;6.054;2023-06-22T09:48:04;21.58;;;10.32;;
65879;SDS011;52661;51.364;6.054;2023-06-22T09:50:30;15.35;;;8.82;;
65879;SDS011;52661;51.364;6.054;2023-06-22T09:52:55;15.38;;;9.70;;
65879;SDS011;52661;51.364;6.054;2023-06-22T09:55:21;19.83;;;10.00;;
65879;SDS011;52661;51.364;6.054;2023-06-22T09:57:46;17.80;;;9.85;;
65879;SDS011;52661;51.364;6.054;2023-06-22T10:00:12;18.02;;;9.10;;
65879;SDS011;52661;51.364;6.054;2023-06-22T10:02:40;18.58;;;9.52;;
65879;SDS011;52661;51.364;6.054;2023-06-22T10:05:06;20.65;;;11.50;;
65879;SDS011;52661;51.364;6.054;2023-06-22T10:07:32;18.60;;;9.52;;
65879;SDS011;52661;51.364;6.054;2023-06-22T10:09:58;20.05;;;10.55;;
65879;SDS011;52661;51.364;6.054;2023-06-22T10:12:23;18.10;;;11.32;;
65879;SDS011;52661;51.364;6.054;2023-06-22T10:14:49;18.27;;;9.70;;
65879;SDS011;52661;51.364;6.054;2023-06-22T10:17:14;17.57;;;9.63;;
65879;SDS011;52661;51.364;6.054;2023-06-22T10:19:39;18.23;;;10.33;;
65879;SDS011;52661;51.364;6.054;2023-06-22T10:22:06;16.50;;;10.25;;
65879;SDS011;52661;51.364;6.054;2023-06-22T10:24:31;20.25;;;10.65;;
65879;SDS011;52661;51.364;6.054;2023-06-22T10:26:57;17.48;;;9.00;;
65879;SDS011;52661;51.364;6.054;2023-06-22T10:29:22;28.13;;;11.35;;
65879;SDS011;52661;51.364;6.054;2023-06-22T10:31:47;20.50;;;10.43;;
65879;SDS011;52661;51.364;6.054;2023-06-22T10:34:13;19.63;;;10.93;;
65879;SDS011;52661;51.364;6.054;2023-06-22T10:36:38;24.07;;;10.00;;
65879;SDS011;52661;51.364;6.054;2023-06-22T10:39:04;18.52;;;10.63;;
65879;SDS011;52661;51.364;6.054;2023-06-22T10:41:29;25.75;;;10.95;;
65879;SDS011;52661;51.364;6.054;2023-06-22T10:43:55;19.00;;;9.85;;
65879;SDS011;52661;51.364;6.054;2023-06-22T10:46:21;20.58;;;13.07;;
65879;SDS011;52661;51.364;6.054;2023-06-22T10:48:46;20.52;;;11.10;;
65879;SDS011;52661;51.364;6.054;2023-06-22T10:51:12;17.75;;;10.90;;
65879;SDS011;52661;51.364;6.054;2023-06-22T10:53:37;20.60;;;10.43;;
65879;SDS011;52661;51.364;6.054;2023-06-22T10:56:02;16.67;;;10.63;;
65879;SDS011;52661;51.364;6.054;2023-06-22T10:58:28;18.90;;;11.68;;
65879;SDS011;52661;51.364;6.054;2023-06-22T11:00:53;17.02;;;10.57;;
65879;SDS011;52661;51.364;6.054;2023-06-22T11:03:18;23.05;;;10.57;;
65879;SDS011;52661;51.364;6.054;2023-06-22T11:05:44;21.45;;;10.77;;
65879;SDS011;52661;51.364;6.054;2023-06-22T11:08:09;17.67;;;10.47;;
65879;SDS011;52661;51.364;6.054;2023-06-22T11:10:34;22.02;;;12.18;;
65879;SDS011;52661;51.364;6.054;2023-06-22T11:13:00;18.77;;;11.07;;
65879;SDS011;52661;51.364;6.054;2023-06-22T11:15:25;19.33;;;11.18;;
65879;SDS011;52661;51.364;6.054;2023-06-22T11:17:50;19.93;;;10.63;;
65879;SDS011;52661;51.364;6.054;2023-06-22T11:20:16;19.23;;;11.27;;
65879;SDS011;52661;51.364;6.054;2023-06-22T11:22:41;19.98;;;12.05;;
65879;SDS011;52661;51.364;6.054;2023-06-22T11:25:07;18.35;;;11.02;;
65879;SDS011;52661;51.364;6.054;2023-06-22T11:27:33;21.70;;;12.90;;
65879;SDS011;52661;51.364;6.054;2023-06-22T11:29:58;23.73;;;11.77;;
65879;SDS011;52661;51.364;6.054;2023-06-22T11:32:24;23.42;;;12.82;;
65879;SDS011;52661;51.364;6.054;2023-06-22T11:34:49;22.45;;;12.48;;
65879;SDS011;52661;51.364;6.054;2023-06-22T11:37:15;22.08;;;13.40;;
65879;SDS011;52661;51.364;6.054;2023-06-22T11:39:43;20.45;;;12.68;;
65879;SDS011;52661;51.364;6.054;2023-06-22T11:42:09;20.35;;;11.68;;
65879;SDS011;52661;51.364;6.054;2023-06-22T11:44:35;25.60;;;13.38;;
65879;SDS011;52661;51.364;6.054;2023-06-22T11:47:01;23.65;;;13.75;;
65879;SDS011;52661;51.364;6.054;2023-06-22T11:51:54;25.80;;;14.23;;
65879;SDS011;52661;51.364;6.054;2023-06-22T11:54:19;26.80;;;14.27;;
65879;SDS011;52661;51.364;6.054;2023-06-22T11:56:44;27.77;;;15.17;;
65879;SDS011;52661;51.364;6.054;2023-06-22T11:59:10;27.30;;;15.38;;
65879;SDS011;52661;51.364;6.054;2023-06-22T12:01:35;29.08;;;16.15;;
65879;SDS011;52661;51.364;6.054;2023-06-22T12:04:01;29.27;;;15.25;;
65879;SDS011;52661;51.364;6.054;2023-06-22T12:06:26;26.75;;;15.82;;
65879;SDS011;52661;51.364;6.054;2023-06-22T12:08:51;26.73;;;16.20;;
65879;SDS011;52661;51.364;6.054;2023-06-22T12:11:17;28.03;;;15.37;;
65879;SDS011;52661;51.364;6.054;2023-06-22T12:13:42;24.45;;;14.40;;
65879;SDS011;52661;51.364;6.054;2023-06-22T12:16:07;26.20;;;15.05;;
65879;SDS011;52661;51.364;6.054;2023-06-22T12:18:33;26.85;;;14.77;;
65879;SDS011;52661;51.364;6.054;2023-06-22T12:20:58;25.67;;;14.23;;
65879;SDS011;52661;51.364;6.054;2023-06-22T12:23:23;25.60;;;14.80;;
65879;SDS011;52661;51.364;6.054;2023-06-22T12:25:49;23.95;;;13.70;;
65879;SDS011;52661;51.364;6.054;2023-06-22T12:28:15;28.48;;;15.82;;
65879;SDS011;52661;51.364;6.054;2023-06-22T12:30:40;22.93;;;13.93;;
65879;SDS011;52661;51.364;6.054;2023-06-22T12:33:05;28.17;;;16.10;;
65879;SDS011;52661;51.364;6.054;2023-06-22T12:35:30;24.67;;;16.77;;
65879;SDS011;52661;51.364;6.054;2023-06-22T12:37:56;25.17;;;13.90;;
65879;SDS011;52661;51.364;6.054;2023-06-22T12:40:21;31.35;;;15.60;;
65879;SDS011;52661;51.364;6.054;2023-06-22T12:42:46;24.13;;;13.60;;
65879;SDS011;52661;51.364;6.054;2023-06-22T12:45:12;25.33;;;14.25;;
65879;SDS011;52661;51.364;6.054;2023-06-22T12:47:37;26.92;;;14.07;;
65879;SDS011;52661;51.364;6.054;2023-06-22T12:50:03;26.77;;;15.25;;
65879;SDS011;52661;51.364;6.054;2023-06-22T12:52:29;25.58;;;15.05;;
65879;SDS011;52661;51.364;6.054;2023-06-22T12:57:21;24.83;;;13.40;;
65879;SDS011;52661;51.364;6.054;2023-06-22T12:59:47;26.23;;;14.98;;
65879;SDS011;52661;51.364;6.054;2023-06-22T13:02:13;25.65;;;16.08;;
65879;SDS011;52661;51.364;6.054;2023-06-22T13:04:38;22.38;;;14.40;;
65879;SDS011;52661;51.364;6.054;2023-06-22T13:07:04;26.55;;;15.10;;
65879;SDS011;52661;51.364;6.054;2023-06-22T13:09:29;25.50;;;14.48;;
65879;SDS011;52661;51.364;6.054;2023-06-22T13:11:55;24.67;;;14.15;;
65879;SDS011;52661;51.364;6.054;2023-06-22T13:14:20;28.83;;;16.10;;
65879;SDS011;52661;51.364;6.054;2023-06-22T13:16:46;26.35;;;15.88;;
65879;SDS011;52661;51.364;6.054;2023-06-22T13:19:11;25.50;;;13.77;;
65879;SDS011;52661;51.364;6.054;2023-06-22T13:21:37;23.33;;;13.60;;
65879;SDS011;52661;51.364;6.054;2023-06-22T13:24:02;26.90;;;15.65;;
65879;SDS011;52661;51.364;6.054;2023-06-22T13:26:28;26.70;;;16.65;;
65879;SDS011;52661;51.364;6.054;2023-06-22T13:28:53;24.40;;;14.70;;
65879;SDS011;52661;51.364;6.054;2023-06-22T13:31:19;29.63;;;15.18;;
65879;SDS011;52661;51.364;6.054;2023-06-22T13:33:45;22.08;;;14.18;;
65879;SDS011;52661;51.364;6.054;2023-06-22T13:36:12;22.35;;;11.65;;
65879;SDS011;52661;51.364;6.054;2023-06-22T13:38:38;23.52;;;14.02;;
65879;SDS011;52661;51.364;6.054;2023-06-22T13:41:04;18.37;;;10.77;;
65879;SDS011;52661;51.364;6.054;2023-06-22T13:43:32;22.70;;;13.07;;
65879;SDS011;52661;51.364;6.054;2023-06-22T13:45:57;22.67;;;12.65;;
65879;SDS011;52661;51.364;6.054;2023-06-22T13:48:23;21.55;;;12.18;;
65879;SDS011;52661;51.364;6.054;2023-06-22T13:50:50;23.08;;;12.70;;
65879;SDS011;52661;51.364;6.054;2023-06-22T13:53:16;20.92;;;12.45;;
65879;SDS011;52661;51.364;6.054;2023-06-22T13:55:41;19.17;;;10.83;;
65879;SDS011;52661;51.364;6.054;2023-06-22T13:58:07;15.20;;;9.68;;
65879;SDS011;52661;51.364;6.054;2023-06-22T14:00:32;13.82;;;9.18;;
65879;SDS011;52661;51.364;6.054;2023-06-22T14:02:57;19.47;;;8.87;;
65879;SDS011;52661;51.364;6.054;2023-06-22T14:05:23;15.88;;;10.13;;
65879;SDS011;52661;51.364;6.054;2023-06-22T14:07:48;19.20;;;10.63;;
65879;SDS011;52661;51.364;6.054;2023-06-22T14:10:13;17.77;;;11.10;;
65879;SDS011;52661;51.364;6.054;2023-06-22T14:12:40;16.45;;;10.02;;
65879;SDS011;52661;51.364;6.054;2023-06-22T14:15:05;17.67;;;8.75;;
65879;SDS011;52661;51.364;6.054;2023-06-22T14:17:31;15.68;;;9.30;;
65879;SDS011;52661;51.364;6.054;2023-06-22T14:19:56;15.70;;;9.23;;
65879;SDS011;52661;51.364;6.054;2023-06-22T14:22:22;21.42;;;10.57;;
65879;SDS011;52661;51.364;6.054;2023-06-22T14:24:48;18.27;;;11.05;;
65879;SDS011;52661;51.364;6.054;2023-06-22T14:27:14;14.90;;;9.50;;
65879;SDS011;52661;51.364;6.054;2023-06-22T14:29:40;16.95;;;10.02;;
65879;SDS011;52661;51.364;6.054;2023-06-22T14:32:05;17.70;;;10.30;;
65879;SDS011;52661;51.364;6.054;2023-06-22T14:34:31;16.40;;;9.65;;
65879;SDS011;52661;51.364;6.054;2023-06-22T14:36:57;17.55;;;10.18;;
65879;SDS011;52661;51.364;6.054;2023-06-22T14:39:23;18.38;;;9.93;;